sensor_id;sensor_type;location;lat;lon;timestamp;P1;durP1;ratioP1;P2;durP2;ratioP2
19778;SDS011;10049;59.306;18.090;2022-10-16T00:01:42;8.52;;;5.53;;
19778;SDS011;10049;59.306;18.090;2022-10-16T00:04:10;7.18;;;5.65;;
19778;SDS011;10049;59.306;18.090;2022-10-16T00:06:38;8.68;;;5.85;;
19778;SDS011;10049;59.306;18.090;2022-10-16T00:09:06;6.60;;;4.75;;
19778;SDS011;10049;59.306;18.090;2022-10-16T00:11:37;7.85;;;5.32;;
19778;SDS011;10049;59.306;18.090;2022-10-16T00:14:07;6.60;;;4.70;;
19778;SDS011;10049;59.306;18.090;2022-10-16T00:16:35;6.40;;;4.40;;
19778;SDS011;10049;59.306;18.090;2022-10-16T00:19:05;10.20;;;4.82;;
19778;SDS011;10049;59.306;18.090;2022-10-16T00:21:32;6.70;;;4.65;;
19778;SDS011;10049;59.306;18.090;2022-10-16T00:24:00;7.10;;;5.10;;
19778;SDS011;10049;59.306;18.090;2022-10-16T00:26:28;6.35;;;4.63;;
19778;SDS011;10049;59.306;18.090;2022-10-16T00:28:56;9.13;;;4.30;;
19778;SDS011;10049;59.306;18.090;2022-10-16T00:31:25;6.47;;;5.30;;
19778;SDS011;10049;59.306;18.090;2022-10-16T00:33:56;5.78;;;4.50;;
19778;SDS011;10049;59.306;18.090;2022-10-16T00:36:27;8.93;;;4.55;;
19778;SDS011;10049;59.306;18.090;2022-10-16T00:38:56;5.90;;;4.63;;
19778;SDS011;10049;59.306;18.090;2022-10-16T00:41:25;5.80;;;4.40;;
19778;SDS011;10049;59.306;18.090;2022-10-16T00:43:54;6.95;;;5.07;;
19778;SDS011;10049;59.306;18.090;2022-10-16T00:46:22;5.90;;;4.82;;
19778;SDS011;10049;59.306;18.090;2022-10-16T00:48:52;11.13;;;5.30;;
19778;SDS011;10049;59.306;18.090;2022-10-16T00:51:21;6.10;;;4.55;;
19778;SDS011;10049;59.306;18.090;2022-10-16T00:53:51;6.60;;;4.55;;
19778;SDS011;10049;59.306;18.090;2022-10-16T00:56:19;6.30;;;4.70;;
19778;SDS011;10049;59.306;18.090;2022-10-16T00:58:46;7.15;;;5.00;;
19778;SDS011;10049;59.306;18.090;2022-10-16T01:01:14;5.55;;;4.40;;
19778;SDS011;10049;59.306;18.090;2022-10-16T01:03:41;6.22;;;4.60;;
19778;SDS011;10049;59.306;18.090;2022-10-16T01:06:17;7.07;;;4.50;;
19778;SDS011;10049;59.306;18.090;2022-10-16T01:08:49;6.40;;;4.45;;
19778;SDS011;10049;59.306;18.090;2022-10-16T01:11:25;6.30;;;4.55;;
19778;SDS011;10049;59.306;18.090;2022-10-16T01:13:55;6.03;;;4.50;;
19778;SDS011;10049;59.306;18.090;2022-10-16T01:16:27;6.18;;;4.72;;
19778;SDS011;10049;59.306;18.090;2022-10-16T01:18:57;6.88;;;4.57;;
19778;SDS011;10049;59.306;18.090;2022-10-16T01:21:27;6.22;;;4.82;;
19778;SDS011;10049;59.306;18.090;2022-10-16T01:23:57;6.22;;;4.38;;
19778;SDS011;10049;59.306;18.090;2022-10-16T01:26:35;6.95;;;4.32;;
19778;SDS011;10049;59.306;18.090;2022-10-16T01:29:05;6.28;;;4.50;;
19778;SDS011;10049;59.306;18.090;2022-10-16T01:31:36;5.65;;;4.47;;
19778;SDS011;10049;59.306;18.090;2022-10-16T01:34:05;7.40;;;4.68;;
19778;SDS011;10049;59.306;18.090;2022-10-16T01:36:35;6.53;;;4.68;;
19778;SDS011;10049;59.306;18.090;2022-10-16T01:39:04;6.20;;;4.55;;
19778;SDS011;10049;59.306;18.090;2022-10-16T01:41:34;7.43;;;4.55;;
19778;SDS011;10049;59.306;18.090;2022-10-16T01:44:05;6.50;;;4.80;;
19778;SDS011;10049;59.306;18.090;2022-10-16T01:46:36;8.70;;;4.68;;
19778;SDS011;10049;59.306;18.090;2022-10-16T01:49:11;6.18;;;4.50;;
19778;SDS011;10049;59.306;18.090;2022-10-16T01:51:39;5.88;;;4.40;;
19778;SDS011;10049;59.306;18.090;2022-10-16T01:54:09;6.95;;;4.60;;
19778;SDS011;10049;59.306;18.090;2022-10-16T01:56:36;6.43;;;4.57;;
19778;SDS011;10049;59.306;18.090;2022-10-16T01:59:09;5.82;;;4.38;;
19778;SDS011;10049;59.306;18.090;2022-10-16T02:01:38;5.95;;;4.22;;
19778;SDS011;10049;59.306;18.090;2022-10-16T02:04:09;6.60;;;4.50;;
19778;SDS011;10049;59.306;18.090;2022-10-16T02:06:43;8.07;;;4.53;;
19778;SDS011;10049;59.306;18.090;2022-10-16T02:09:13;7.18;;;4.30;;
19778;SDS011;10049;59.306;18.090;2022-10-16T02:11:41;6.40;;;4.47;;
19778;SDS011;10049;59.306;18.090;2022-10-16T02:14:12;5.55;;;3.92;;
19778;SDS011;10049;59.306;18.090;2022-10-16T02:16:41;5.07;;;4.18;;
19778;SDS011;10049;59.306;18.090;2022-10-16T02:19:09;5.65;;;4.05;;
19778;SDS011;10049;59.306;18.090;2022-10-16T02:21:39;6.07;;;4.15;;
19778;SDS011;10049;59.306;18.090;2022-10-16T02:24:11;7.10;;;4.35;;
19778;SDS011;10049;59.306;18.090;2022-10-16T02:26:50;5.53;;;4.03;;
19778;SDS011;10049;59.306;18.090;2022-10-16T02:29:22;7.95;;;4.18;;
19778;SDS011;10049;59.306;18.090;2022-10-16T02:31:50;5.22;;;4.03;;
19778;SDS011;10049;59.306;18.090;2022-10-16T02:34:19;5.65;;;3.95;;
19778;SDS011;10049;59.306;18.090;2022-10-16T02:36:48;6.68;;;4.30;;
19778;SDS011;10049;59.306;18.090;2022-10-16T02:39:18;4.75;;;3.80;;
19778;SDS011;10049;59.306;18.090;2022-10-16T02:41:47;6.63;;;4.35;;
19778;SDS011;10049;59.306;18.090;2022-10-16T02:44:15;6.45;;;4.10;;
19778;SDS011;10049;59.306;18.090;2022-10-16T02:46:44;5.22;;;3.95;;
19778;SDS011;10049;59.306;18.090;2022-10-16T02:49:12;5.47;;;4.15;;
19778;SDS011;10049;59.306;18.090;2022-10-16T02:51:40;8.02;;;3.83;;
19778;SDS011;10049;59.306;18.090;2022-10-16T02:54:10;5.70;;;3.80;;
19778;SDS011;10049;59.306;18.090;2022-10-16T02:56:38;5.25;;;3.70;;
19778;SDS011;10049;59.306;18.090;2022-10-16T02:59:06;5.95;;;3.80;;
19778;SDS011;10049;59.306;18.090;2022-10-16T03:01:34;5.60;;;3.80;;
19778;SDS011;10049;59.306;18.090;2022-10-16T03:04:03;3.85;;;3.40;;
19778;SDS011;10049;59.306;18.090;2022-10-16T03:06:31;4.00;;;3.53;;
19778;SDS011;10049;59.306;18.090;2022-10-16T03:09:01;4.22;;;3.25;;
19778;SDS011;10049;59.306;18.090;2022-10-16T03:11:31;6.50;;;3.55;;
19778;SDS011;10049;59.306;18.090;2022-10-16T03:13:58;5.07;;;3.90;;
19778;SDS011;10049;59.306;18.090;2022-10-16T03:16:25;4.93;;;3.50;;
19778;SDS011;10049;59.306;18.090;2022-10-16T03:18:53;4.18;;;3.30;;
19778;SDS011;10049;59.306;18.090;2022-10-16T03:21:25;6.15;;;3.78;;
19778;SDS011;10049;59.306;18.090;2022-10-16T03:23:53;4.10;;;3.40;;
19778;SDS011;10049;59.306;18.090;2022-10-16T03:26:21;4.75;;;3.47;;
19778;SDS011;10049;59.306;18.090;2022-10-16T03:28:48;5.65;;;3.25;;
19778;SDS011;10049;59.306;18.090;2022-10-16T03:31:15;5.45;;;3.30;;
19778;SDS011;10049;59.306;18.090;2022-10-16T03:33:44;6.07;;;3.25;;
19778;SDS011;10049;59.306;18.090;2022-10-16T03:36:12;5.10;;;2.97;;
19778;SDS011;10049;59.306;18.090;2022-10-16T03:38:41;4.15;;;2.95;;
19778;SDS011;10049;59.306;18.090;2022-10-16T03:41:08;3.22;;;2.83;;
19778;SDS011;10049;59.306;18.090;2022-10-16T03:43:36;4.80;;;3.00;;
19778;SDS011;10049;59.306;18.090;2022-10-16T03:46:03;4.43;;;2.95;;
19778;SDS011;10049;59.306;18.090;2022-10-16T03:48:31;3.45;;;2.63;;
19778;SDS011;10049;59.306;18.090;2022-10-16T03:50:58;3.72;;;2.80;;
19778;SDS011;10049;59.306;18.090;2022-10-16T03:53:26;5.50;;;3.35;;
19778;SDS011;10049;59.306;18.090;2022-10-16T03:55:56;4.78;;;3.35;;
19778;SDS011;10049;59.306;18.090;2022-10-16T03:58:24;4.10;;;2.97;;
19778;SDS011;10049;59.306;18.090;2022-10-16T04:00:51;5.63;;;3.10;;
19778;SDS011;10049;59.306;18.090;2022-10-16T04:03:19;3.13;;;2.72;;
19778;SDS011;10049;59.306;18.090;2022-10-16T04:05:46;3.55;;;2.72;;
19778;SDS011;10049;59.306;18.090;2022-10-16T04:08:14;3.10;;;2.47;;
19778;SDS011;10049;59.306;18.090;2022-10-16T04:10:42;2.97;;;2.38;;
19778;SDS011;10049;59.306;18.090;2022-10-16T04:13:13;2.55;;;2.33;;
19778;SDS011;10049;59.306;18.090;2022-10-16T04:15:42;4.95;;;2.47;;
19778;SDS011;10049;59.306;18.090;2022-10-16T04:18:10;3.55;;;2.70;;
19778;SDS011;10049;59.306;18.090;2022-10-16T04:20:42;3.53;;;2.63;;
19778;SDS011;10049;59.306;18.090;2022-10-16T04:23:10;3.10;;;2.60;;
19778;SDS011;10049;59.306;18.090;2022-10-16T04:25:39;3.78;;;2.55;;
19778;SDS011;10049;59.306;18.090;2022-10-16T04:28:23;3.15;;;2.50;;
19778;SDS011;10049;59.306;18.090;2022-10-16T04:30:51;4.05;;;2.72;;
19778;SDS011;10049;59.306;18.090;2022-10-16T04:33:19;4.15;;;2.78;;
19778;SDS011;10049;59.306;18.090;2022-10-16T04:35:46;2.95;;;2.30;;
19778;SDS011;10049;59.306;18.090;2022-10-16T04:38:15;3.05;;;2.70;;
19778;SDS011;10049;59.306;18.090;2022-10-16T04:40:42;3.47;;;2.53;;
19778;SDS011;10049;59.306;18.090;2022-10-16T04:43:10;3.45;;;2.40;;
19778;SDS011;10049;59.306;18.090;2022-10-16T04:45:38;3.58;;;2.30;;
19778;SDS011;10049;59.306;18.090;2022-10-16T04:48:06;3.45;;;2.40;;
19778;SDS011;10049;59.306;18.090;2022-10-16T04:50:33;3.67;;;2.80;;
19778;SDS011;10049;59.306;18.090;2022-10-16T04:53:00;6.18;;;2.70;;
19778;SDS011;10049;59.306;18.090;2022-10-16T04:55:28;3.88;;;2.60;;
19778;SDS011;10049;59.306;18.090;2022-10-16T04:57:55;4.18;;;2.80;;
19778;SDS011;10049;59.306;18.090;2022-10-16T05:00:24;3.10;;;2.40;;
19778;SDS011;10049;59.306;18.090;2022-10-16T05:02:53;3.53;;;2.67;;
19778;SDS011;10049;59.306;18.090;2022-10-16T05:05:21;4.95;;;2.80;;
19778;SDS011;10049;59.306;18.090;2022-10-16T05:07:49;3.03;;;2.40;;
19778;SDS011;10049;59.306;18.090;2022-10-16T05:10:16;4.35;;;2.58;;
19778;SDS011;10049;59.306;18.090;2022-10-16T05:12:44;2.83;;;2.47;;
19778;SDS011;10049;59.306;18.090;2022-10-16T05:15:11;2.88;;;2.40;;
19778;SDS011;10049;59.306;18.090;2022-10-16T05:17:39;2.72;;;2.40;;
19778;SDS011;10049;59.306;18.090;2022-10-16T05:20:09;3.70;;;2.50;;
19778;SDS011;10049;59.306;18.090;2022-10-16T05:22:36;3.38;;;2.30;;
19778;SDS011;10049;59.306;18.090;2022-10-16T05:25:04;2.47;;;2.22;;
19778;SDS011;10049;59.306;18.090;2022-10-16T05:27:32;5.05;;;2.53;;
19778;SDS011;10049;59.306;18.090;2022-10-16T05:29:59;7.32;;;2.53;;
19778;SDS011;10049;59.306;18.090;2022-10-16T05:32:27;4.43;;;2.63;;
19778;SDS011;10049;59.306;18.090;2022-10-16T05:34:55;5.80;;;2.60;;
19778;SDS011;10049;59.306;18.090;2022-10-16T05:37:25;4.63;;;2.65;;
19778;SDS011;10049;59.306;18.090;2022-10-16T05:39:54;3.75;;;2.60;;
19778;SDS011;10049;59.306;18.090;2022-10-16T05:42:22;3.25;;;2.70;;
19778;SDS011;10049;59.306;18.090;2022-10-16T05:44:50;3.45;;;2.65;;
19778;SDS011;10049;59.306;18.090;2022-10-16T05:47:18;2.65;;;2.40;;
19778;SDS011;10049;59.306;18.090;2022-10-16T05:49:46;3.45;;;2.40;;
19778;SDS011;10049;59.306;18.090;2022-10-16T05:52:18;3.15;;;2.65;;
19778;SDS011;10049;59.306;18.090;2022-10-16T05:54:50;4.13;;;2.90;;
19778;SDS011;10049;59.306;18.090;2022-10-16T05:57:18;4.90;;;3.05;;
19778;SDS011;10049;59.306;18.090;2022-10-16T05:59:46;4.07;;;2.72;;
19778;SDS011;10049;59.306;18.090;2022-10-16T06:02:15;5.18;;;2.88;;
19778;SDS011;10049;59.306;18.090;2022-10-16T06:04:43;4.82;;;3.40;;
19778;SDS011;10049;59.306;18.090;2022-10-16T06:07:11;4.82;;;3.20;;
19778;SDS011;10049;59.306;18.090;2022-10-16T06:09:39;4.90;;;3.45;;
19778;SDS011;10049;59.306;18.090;2022-10-16T06:12:10;5.40;;;3.55;;
19778;SDS011;10049;59.306;18.090;2022-10-16T06:14:38;5.00;;;3.65;;
19778;SDS011;10049;59.306;18.090;2022-10-16T06:17:05;5.25;;;3.40;;
19778;SDS011;10049;59.306;18.090;2022-10-16T06:19:34;5.50;;;4.13;;
19778;SDS011;10049;59.306;18.090;2022-10-16T06:22:06;6.43;;;4.10;;
19778;SDS011;10049;59.306;18.090;2022-10-16T06:24:33;5.65;;;4.18;;
19778;SDS011;10049;59.306;18.090;2022-10-16T06:27:02;7.53;;;4.50;;
19778;SDS011;10049;59.306;18.090;2022-10-16T06:29:31;5.72;;;4.07;;
19778;SDS011;10049;59.306;18.090;2022-10-16T06:31:59;6.20;;;4.43;;
19778;SDS011;10049;59.306;18.090;2022-10-16T06:34:26;7.70;;;4.40;;
19778;SDS011;10049;59.306;18.090;2022-10-16T06:36:54;5.35;;;4.15;;
19778;SDS011;10049;59.306;18.090;2022-10-16T06:39:21;5.05;;;4.30;;
19778;SDS011;10049;59.306;18.090;2022-10-16T06:41:48;7.65;;;4.57;;
19778;SDS011;10049;59.306;18.090;2022-10-16T06:44:16;5.47;;;4.20;;
19778;SDS011;10049;59.306;18.090;2022-10-16T06:46:45;6.07;;;4.38;;
19778;SDS011;10049;59.306;18.090;2022-10-16T06:49:13;5.70;;;4.45;;
19778;SDS011;10049;59.306;18.090;2022-10-16T06:51:46;6.20;;;4.43;;
19778;SDS011;10049;59.306;18.090;2022-10-16T06:54:14;7.78;;;4.70;;
19778;SDS011;10049;59.306;18.090;2022-10-16T06:56:43;5.75;;;4.55;;
19778;SDS011;10049;59.306;18.090;2022-10-16T06:59:11;5.35;;;4.35;;
19778;SDS011;10049;59.306;18.090;2022-10-16T07:01:40;6.18;;;4.32;;
19778;SDS011;10049;59.306;18.090;2022-10-16T07:04:13;5.60;;;4.45;;
19778;SDS011;10049;59.306;18.090;2022-10-16T07:06:40;5.82;;;4.50;;
19778;SDS011;10049;59.306;18.090;2022-10-16T07:09:10;7.32;;;4.85;;
19778;SDS011;10049;59.306;18.090;2022-10-16T07:11:38;6.40;;;4.75;;
19778;SDS011;10049;59.306;18.090;2022-10-16T07:14:10;6.25;;;4.30;;
19778;SDS011;10049;59.306;18.090;2022-10-16T07:16:41;7.40;;;4.40;;
19778;SDS011;10049;59.306;18.090;2022-10-16T07:19:10;6.15;;;4.43;;
19778;SDS011;10049;59.306;18.090;2022-10-16T07:21:42;6.38;;;4.00;;
19778;SDS011;10049;59.306;18.090;2022-10-16T07:24:12;4.90;;;3.80;;
19778;SDS011;10049;59.306;18.090;2022-10-16T07:26:43;4.97;;;4.03;;
19778;SDS011;10049;59.306;18.090;2022-10-16T07:29:13;6.05;;;4.10;;
19778;SDS011;10049;59.306;18.090;2022-10-16T07:31:41;7.03;;;3.67;;
19778;SDS011;10049;59.306;18.090;2022-10-16T07:34:13;5.10;;;3.60;;
19778;SDS011;10049;59.306;18.090;2022-10-16T07:36:48;3.88;;;3.20;;
19778;SDS011;10049;59.306;18.090;2022-10-16T07:39:16;5.97;;;3.78;;
19778;SDS011;10049;59.306;18.090;2022-10-16T07:41:46;5.13;;;3.00;;
19778;SDS011;10049;59.306;18.090;2022-10-16T07:44:15;5.00;;;2.80;;
19778;SDS011;10049;59.306;18.090;2022-10-16T07:46:43;3.17;;;2.80;;
19778;SDS011;10049;59.306;18.090;2022-10-16T07:49:11;3.25;;;2.47;;
19778;SDS011;10049;59.306;18.090;2022-10-16T07:51:38;3.92;;;2.45;;
19778;SDS011;10049;59.306;18.090;2022-10-16T07:54:09;3.08;;;2.40;;
19778;SDS011;10049;59.306;18.090;2022-10-16T07:56:37;3.85;;;2.35;;
19778;SDS011;10049;59.306;18.090;2022-10-16T07:59:04;3.33;;;2.70;;
19778;SDS011;10049;59.306;18.090;2022-10-16T08:01:32;2.42;;;2.20;;
19778;SDS011;10049;59.306;18.090;2022-10-16T08:04:00;2.88;;;2.00;;
19778;SDS011;10049;59.306;18.090;2022-10-16T08:06:29;2.55;;;2.15;;
19778;SDS011;10049;59.306;18.090;2022-10-16T08:09:01;4.57;;;2.20;;
19778;SDS011;10049;59.306;18.090;2022-10-16T08:11:34;2.40;;;2.00;;
19778;SDS011;10049;59.306;18.090;2022-10-16T08:14:04;2.78;;;2.00;;
19778;SDS011;10049;59.306;18.090;2022-10-16T08:16:36;3.88;;;2.05;;
19778;SDS011;10049;59.306;18.090;2022-10-16T08:19:04;2.28;;;1.83;;
19778;SDS011;10049;59.306;18.090;2022-10-16T08:21:31;2.60;;;1.92;;
19778;SDS011;10049;59.306;18.090;2022-10-16T08:24:01;2.63;;;1.80;;
19778;SDS011;10049;59.306;18.090;2022-10-16T08:26:29;2.80;;;2.20;;
19778;SDS011;10049;59.306;18.090;2022-10-16T08:28:58;1.85;;;1.63;;
19778;SDS011;10049;59.306;18.090;2022-10-16T08:31:28;2.65;;;1.83;;
19778;SDS011;10049;59.306;18.090;2022-10-16T08:33:56;2.30;;;1.60;;
19778;SDS011;10049;59.306;18.090;2022-10-16T08:36:24;1.70;;;1.58;;
19778;SDS011;10049;59.306;18.090;2022-10-16T08:38:52;3.53;;;1.75;;
19778;SDS011;10049;59.306;18.090;2022-10-16T08:41:27;2.42;;;1.65;;
19778;SDS011;10049;59.306;18.090;2022-10-16T08:44:10;2.42;;;1.55;;
19778;SDS011;10049;59.306;18.090;2022-10-16T08:46:46;2.22;;;1.80;;
19778;SDS011;10049;59.306;18.090;2022-10-16T08:49:18;3.90;;;1.92;;
19778;SDS011;10049;59.306;18.090;2022-10-16T08:51:49;4.03;;;1.80;;
19778;SDS011;10049;59.306;18.090;2022-10-16T08:54:22;2.38;;;1.60;;
19778;SDS011;10049;59.306;18.090;2022-10-16T08:56:50;3.38;;;1.80;;
19778;SDS011;10049;59.306;18.090;2022-10-16T08:59:21;2.17;;;1.60;;
19778;SDS011;10049;59.306;18.090;2022-10-16T09:01:49;1.80;;;1.50;;
19778;SDS011;10049;59.306;18.090;2022-10-16T09:04:50;2.70;;;1.60;;
19778;SDS011;10049;59.306;18.090;2022-10-16T09:07:20;2.10;;;1.58;;
19778;SDS011;10049;59.306;18.090;2022-10-16T09:09:54;1.77;;;1.52;;
19778;SDS011;10049;59.306;18.090;2022-10-16T09:12:26;1.60;;;1.50;;
19778;SDS011;10049;59.306;18.090;2022-10-16T09:15:05;2.92;;;1.70;;
19778;SDS011;10049;59.306;18.090;2022-10-16T09:17:40;1.42;;;1.30;;
19778;SDS011;10049;59.306;18.090;2022-10-16T09:20:20;1.83;;;1.40;;
19778;SDS011;10049;59.306;18.090;2022-10-16T09:22:51;2.42;;;1.55;;
19778;SDS011;10049;59.306;18.090;2022-10-16T09:25:22;5.68;;;1.55;;
19778;SDS011;10049;59.306;18.090;2022-10-16T09:27:51;1.98;;;1.30;;
19778;SDS011;10049;59.306;18.090;2022-10-16T09:30:26;2.63;;;1.48;;
19778;SDS011;10049;59.306;18.090;2022-10-16T09:32:57;3.40;;;1.40;;
19778;SDS011;10049;59.306;18.090;2022-10-16T09:35:31;2.05;;;1.30;;
19778;SDS011;10049;59.306;18.090;2022-10-16T09:37:59;2.67;;;1.33;;
19778;SDS011;10049;59.306;18.090;2022-10-16T09:40:30;2.20;;;1.33;;
19778;SDS011;10049;59.306;18.090;2022-10-16T09:43:02;2.00;;;1.33;;
19778;SDS011;10049;59.306;18.090;2022-10-16T09:45:34;2.30;;;1.23;;
19778;SDS011;10049;59.306;18.090;2022-10-16T09:48:08;1.70;;;1.10;;
19778;SDS011;10049;59.306;18.090;2022-10-16T09:50:42;3.78;;;1.33;;
19778;SDS011;10049;59.306;18.090;2022-10-16T09:53:21;3.58;;;1.35;;
19778;SDS011;10049;59.306;18.090;2022-10-16T09:55:49;3.85;;;1.30;;
19778;SDS011;10049;59.306;18.090;2022-10-16T09:58:20;2.15;;;1.30;;
19778;SDS011;10049;59.306;18.090;2022-10-16T10:00:53;1.85;;;1.30;;
19778;SDS011;10049;59.306;18.090;2022-10-16T10:03:36;2.67;;;1.40;;
19778;SDS011;10049;59.306;18.090;2022-10-16T10:06:18;2.58;;;1.30;;
19778;SDS011;10049;59.306;18.090;2022-10-16T10:14:20;2.92;;;1.38;;
19778;SDS011;10049;59.306;18.090;2022-10-16T10:16:51;6.47;;;1.30;;
19778;SDS011;10049;59.306;18.090;2022-10-16T10:19:20;1.85;;;1.20;;
19778;SDS011;10049;59.306;18.090;2022-10-16T10:21:49;2.25;;;1.10;;
19778;SDS011;10049;59.306;18.090;2022-10-16T10:24:19;2.53;;;1.20;;
19778;SDS011;10049;59.306;18.090;2022-10-16T10:26:50;3.65;;;1.55;;
19778;SDS011;10049;59.306;18.090;2022-10-16T10:29:25;5.75;;;1.23;;
19778;SDS011;10049;59.306;18.090;2022-10-16T10:32:01;2.45;;;1.27;;
19778;SDS011;10049;59.306;18.090;2022-10-16T10:34:37;2.58;;;1.17;;
19778;SDS011;10049;59.306;18.090;2022-10-16T10:37:25;2.80;;;1.20;;
19778;SDS011;10049;59.306;18.090;2022-10-16T10:39:57;3.05;;;1.30;;
19778;SDS011;10049;59.306;18.090;2022-10-16T10:42:29;4.70;;;1.10;;
19778;SDS011;10049;59.306;18.090;2022-10-16T10:45:06;3.13;;;1.00;;
19778;SDS011;10049;59.306;18.090;2022-10-16T10:47:42;2.30;;;1.20;;
19778;SDS011;10049;59.306;18.090;2022-10-16T10:50:18;2.35;;;0.90;;
19778;SDS011;10049;59.306;18.090;2022-10-16T10:53:04;2.85;;;1.05;;
19778;SDS011;10049;59.306;18.090;2022-10-16T10:55:36;3.28;;;0.93;;
19778;SDS011;10049;59.306;18.090;2022-10-16T10:58:31;1.95;;;0.93;;
19778;SDS011;10049;59.306;18.090;2022-10-16T11:01:07;2.15;;;1.13;;
19778;SDS011;10049;59.306;18.090;2022-10-16T11:03:52;4.07;;;1.20;;
19778;SDS011;10049;59.306;18.090;2022-10-16T11:06:24;2.05;;;0.90;;
19778;SDS011;10049;59.306;18.090;2022-10-16T11:08:53;4.18;;;1.30;;
19778;SDS011;10049;59.306;18.090;2022-10-16T11:11:24;1.80;;;1.13;;
19778;SDS011;10049;59.306;18.090;2022-10-16T11:13:54;2.53;;;1.05;;
19778;SDS011;10049;59.306;18.090;2022-10-16T11:16:26;1.85;;;1.10;;
19778;SDS011;10049;59.306;18.090;2022-10-16T11:18:56;4.45;;;1.30;;
19778;SDS011;10049;59.306;18.090;2022-10-16T11:21:48;2.30;;;1.15;;
19778;SDS011;10049;59.306;18.090;2022-10-16T11:24:24;2.65;;;1.20;;
19778;SDS011;10049;59.306;18.090;2022-10-16T11:26:57;1.60;;;1.17;;
19778;SDS011;10049;59.306;18.090;2022-10-16T11:29:45;3.20;;;1.10;;
19778;SDS011;10049;59.306;18.090;2022-10-16T11:32:17;2.38;;;1.10;;
19778;SDS011;10049;59.306;18.090;2022-10-16T11:34:49;1.73;;;0.98;;
19778;SDS011;10049;59.306;18.090;2022-10-16T11:37:19;5.40;;;1.20;;
19778;SDS011;10049;59.306;18.090;2022-10-16T11:39:54;2.63;;;1.08;;
19778;SDS011;10049;59.306;18.090;2022-10-16T11:42:25;1.63;;;1.08;;
19778;SDS011;10049;59.306;18.090;2022-10-16T11:44:56;2.70;;;1.13;;
19778;SDS011;10049;59.306;18.090;2022-10-16T11:47:27;3.42;;;1.40;;
19778;SDS011;10049;59.306;18.090;2022-10-16T11:50:02;1.73;;;1.10;;
19778;SDS011;10049;59.306;18.090;2022-10-16T11:52:31;3.70;;;1.70;;
19778;SDS011;10049;59.306;18.090;2022-10-16T11:55:04;2.33;;;1.45;;
19778;SDS011;10049;59.306;18.090;2022-10-16T11:57:39;1.52;;;1.10;;
19778;SDS011;10049;59.306;18.090;2022-10-16T12:00:08;2.53;;;1.20;;
19778;SDS011;10049;59.306;18.090;2022-10-16T12:02:43;6.43;;;1.10;;
19778;SDS011;10049;59.306;18.090;2022-10-16T12:05:18;2.33;;;1.00;;
19778;SDS011;10049;59.306;18.090;2022-10-16T12:07:51;5.40;;;1.10;;
19778;SDS011;10049;59.306;18.090;2022-10-16T12:10:21;2.03;;;1.10;;
19778;SDS011;10049;59.306;18.090;2022-10-16T12:12:53;3.75;;;1.10;;
19778;SDS011;10049;59.306;18.090;2022-10-16T12:15:24;1.75;;;1.00;;
19778;SDS011;10049;59.306;18.090;2022-10-16T12:17:53;2.45;;;1.00;;
19778;SDS011;10049;59.306;18.090;2022-10-16T12:20:24;3.53;;;1.20;;
19778;SDS011;10049;59.306;18.090;2022-10-16T12:22:53;1.92;;;0.95;;
19778;SDS011;10049;59.306;18.090;2022-10-16T12:25:23;1.52;;;1.00;;
19778;SDS011;10049;59.306;18.090;2022-10-16T12:27:55;3.60;;;1.10;;
19778;SDS011;10049;59.306;18.090;2022-10-16T12:30:24;2.35;;;1.17;;
19778;SDS011;10049;59.306;18.090;2022-10-16T12:32:53;1.77;;;1.10;;
19778;SDS011;10049;59.306;18.090;2022-10-16T12:35:25;1.25;;;1.08;;
19778;SDS011;10049;59.306;18.090;2022-10-16T12:38:04;2.13;;;1.00;;
19778;SDS011;10049;59.306;18.090;2022-10-16T12:40:33;2.22;;;1.00;;
19778;SDS011;10049;59.306;18.090;2022-10-16T12:43:10;1.20;;;0.93;;
19778;SDS011;10049;59.306;18.090;2022-10-16T12:45:38;2.13;;;0.95;;
19778;SDS011;10049;59.306;18.090;2022-10-16T12:48:18;1.10;;;0.90;;
19778;SDS011;10049;59.306;18.090;2022-10-16T12:50:48;2.40;;;1.00;;
19778;SDS011;10049;59.306;18.090;2022-10-16T12:53:18;2.83;;;0.98;;
19778;SDS011;10049;59.306;18.090;2022-10-16T12:55:52;3.38;;;0.90;;
19778;SDS011;10049;59.306;18.090;2022-10-16T13:01:07;1.00;;;0.90;;
19778;SDS011;10049;59.306;18.090;2022-10-16T13:03:48;2.35;;;1.10;;
19778;SDS011;10049;59.306;18.090;2022-10-16T13:06:25;13.82;;;6.05;;
19778;SDS011;10049;59.306;18.090;2022-10-16T13:09:02;13.95;;;9.02;;
19778;SDS011;10049;59.306;18.090;2022-10-16T13:11:42;11.93;;;7.75;;
19778;SDS011;10049;59.306;18.090;2022-10-16T13:14:20;9.27;;;4.45;;
19778;SDS011;10049;59.306;18.090;2022-10-16T13:16:57;6.90;;;3.97;;
19778;SDS011;10049;59.306;18.090;2022-10-16T13:19:29;6.80;;;3.78;;
19778;SDS011;10049;59.306;18.090;2022-10-16T13:22:03;4.57;;;2.50;;
19778;SDS011;10049;59.306;18.090;2022-10-16T13:24:41;5.63;;;2.15;;
19778;SDS011;10049;59.306;18.090;2022-10-16T13:27:11;3.03;;;1.50;;
19778;SDS011;10049;59.306;18.090;2022-10-16T13:29:42;1.38;;;1.27;;
19778;SDS011;10049;59.306;18.090;2022-10-16T13:32:10;1.30;;;0.80;;
19778;SDS011;10049;59.306;18.090;2022-10-16T13:34:43;2.10;;;1.08;;
19778;SDS011;10049;59.306;18.090;2022-10-16T13:37:17;3.20;;;1.58;;
19778;SDS011;10049;59.306;18.090;2022-10-16T13:39:47;2.75;;;1.10;;
19778;SDS011;10049;59.306;18.090;2022-10-16T13:42:18;2.80;;;1.33;;
19778;SDS011;10049;59.306;18.090;2022-10-16T13:44:48;3.30;;;1.63;;
19778;SDS011;10049;59.306;18.090;2022-10-16T13:47:22;3.58;;;1.38;;
19778;SDS011;10049;59.306;18.090;2022-10-16T13:49:58;3.08;;;1.02;;
19778;SDS011;10049;59.306;18.090;2022-10-16T13:52:36;3.17;;;1.40;;
19778;SDS011;10049;59.306;18.090;2022-10-16T13:55:15;2.63;;;1.20;;
19778;SDS011;10049;59.306;18.090;2022-10-16T13:57:45;3.38;;;1.00;;
19778;SDS011;10049;59.306;18.090;2022-10-16T14:00:19;2.33;;;1.00;;
19778;SDS011;10049;59.306;18.090;2022-10-16T14:02:51;3.22;;;1.17;;
19778;SDS011;10049;59.306;18.090;2022-10-16T14:05:24;1.45;;;0.70;;
19778;SDS011;10049;59.306;18.090;2022-10-16T14:07:54;1.88;;;0.85;;
19778;SDS011;10049;59.306;18.090;2022-10-16T14:10:25;1.50;;;0.93;;
19778;SDS011;10049;59.306;18.090;2022-10-16T14:12:57;1.27;;;0.80;;
19778;SDS011;10049;59.306;18.090;2022-10-16T14:15:30;5.00;;;0.90;;
19778;SDS011;10049;59.306;18.090;2022-10-16T14:17:58;1.50;;;0.80;;
19778;SDS011;10049;59.306;18.090;2022-10-16T14:20:27;1.73;;;1.00;;
19778;SDS011;10049;59.306;18.090;2022-10-16T14:23:00;2.20;;;1.27;;
19778;SDS011;10049;59.306;18.090;2022-10-16T14:25:28;1.50;;;0.82;;
19778;SDS011;10049;59.306;18.090;2022-10-16T14:28:04;2.92;;;1.23;;
19778;SDS011;10049;59.306;18.090;2022-10-16T14:30:32;2.42;;;1.27;;
19778;SDS011;10049;59.306;18.090;2022-10-16T14:33:02;1.45;;;1.30;;
19778;SDS011;10049;59.306;18.090;2022-10-16T14:35:31;4.25;;;1.17;;
19778;SDS011;10049;59.306;18.090;2022-10-16T14:38:02;1.40;;;1.20;;
19778;SDS011;10049;59.306;18.090;2022-10-16T14:40:31;3.40;;;1.60;;
19778;SDS011;10049;59.306;18.090;2022-10-16T14:43:00;3.47;;;1.70;;
19778;SDS011;10049;59.306;18.090;2022-10-16T14:45:31;4.57;;;2.05;;
19778;SDS011;10049;59.306;18.090;2022-10-16T14:48:01;2.58;;;1.60;;
19778;SDS011;10049;59.306;18.090;2022-10-16T14:50:32;3.67;;;1.58;;
19778;SDS011;10049;59.306;18.090;2022-10-16T14:53:04;2.25;;;1.48;;
19778;SDS011;10049;59.306;18.090;2022-10-16T14:55:40;3.58;;;1.60;;
19778;SDS011;10049;59.306;18.090;2022-10-16T14:58:09;5.60;;;1.60;;
19778;SDS011;10049;59.306;18.090;2022-10-16T15:00:37;2.17;;;1.20;;
19778;SDS011;10049;59.306;18.090;2022-10-16T15:03:07;2.67;;;1.15;;